sensor_id;sensor_type;location;lat;lon;timestamp;temperature;humidity
1988;DHT22;12775;46.994;15.498;2023-07-31T00:01:27;20.80;99.90
1988;DHT22;12775;46.994;15.498;2023-07-31T00:03:55;20.80;99.90
1988;DHT22;12775;46.994;15.498;2023-07-31T00:06:21;20.80;99.90
1988;DHT22;12775;46.994;15.498;2023-07-31T00:08:48;20.90;99.90
1988;DHT22;12775;46.994;15.498;2023-07-31T00:11:14;20.90;99.90
1988;DHT22;12775;46.994;15.498;2023-07-31T00:13:41;20.90;99.90
1988;DHT22;12775;46.994;15.498;2023-07-31T00:16:08;20.90;99.90
1988;DHT22;12775;46.994;15.498;2023-07-31T00:18:34;20.90;99.90
1988;DHT22;12775;46.994;15.498;2023-07-31T00:21:01;20.90;99.90
1988;DHT22;12775;46.994;15.498;2023-07-31T00:23:27;21.00;99.90
1988;DHT22;12775;46.994;15.498;2023-07-31T00:25:54;21.00;99.90
1988;DHT22;12775;46.994;15.498;2023-07-31T00:28:20;20.90;99.90
1988;DHT22;12775;46.994;15.498;2023-07-31T00:30:47;20.90;99.90
1988;DHT22;12775;46.994;15.498;2023-07-31T00:33:14;20.90;99.90
1988;DHT22;12775;46.994;15.498;2023-07-31T00:35:40;20.90;99.90
1988;DHT22;12775;46.994;15.498;2023-07-31T00:38:07;20.90;99.90
1988;DHT22;12775;46.994;15.498;2023-07-31T00:40:35;20.90;99.90
1988;DHT22;12775;46.994;15.498;2023-07-31T00:43:01;20.90;99.90
1988;DHT22;12775;46.994;15.498;2023-07-31T00:45:27;20.90;99.90
1988;DHT22;12775;46.994;15.498;2023-07-31T00:47:55;20.90;99.90
1988;DHT22;12775;46.994;15.498;2023-07-31T00:50:24;20.90;99.90
1988;DHT22;12775;46.994;15.498;2023-07-31T00:52:49;20.90;99.90
1988;DHT22;12775;46.994;15.498;2023-07-31T00:55:16;20.90;99.90
1988;DHT22;12775;46.994;15.498;2023-07-31T00:57:42;20.80;99.90
1988;DHT22;12775;46.994;15.498;2023-07-31T01:00:09;20.80;99.90
1988;DHT22;12775;46.994;15.498;2023-07-31T01:02:36;20.80;99.90
1988;DHT22;12775;46.994;15.498;2023-07-31T01:05:03;20.80;99.90
1988;DHT22;12775;46.994;15.498;2023-07-31T01:07:35;20.80;99.90
1988;DHT22;12775;46.994;15.498;2023-07-31T01:10:04;20.80;99.90
1988;DHT22;12775;46.994;15.498;2023-07-31T01:12:30;20.80;99.90
1988;DHT22;12775;46.994;15.498;2023-07-31T01:15:03;20.80;99.90
1988;DHT22;12775;46.994;15.498;2023-07-31T01:17:29;20.80;99.90
1988;DHT22;12775;46.994;15.498;2023-07-31T01:19:57;20.70;99.90
1988;DHT22;12775;46.994;15.498;2023-07-31T01:25:30;20.70;99.90
1988;DHT22;12775;46.994;15.498;2023-07-31T01:27:59;20.70;99.90
1988;DHT22;12775;46.994;15.498;2023-07-31T01:30:27;20.70;99.90
1988;DHT22;12775;46.994;15.498;2023-07-31T01:32:52;20.70;99.90
1988;DHT22;12775;46.994;15.498;2023-07-31T01:35:21;20.70;99.90
1988;DHT22;12775;46.994;15.498;2023-07-31T01:37:47;20.70;99.90
1988;DHT22;12775;46.994;15.498;2023-07-31T01:40:14;20.70;99.90
1988;DHT22;12775;46.994;15.498;2023-07-31T01:42:40;20.70;99.90
1988;DHT22;12775;46.994;15.498;2023-07-31T01:45:08;20.70;99.90
1988;DHT22;12775;46.994;15.498;2023-07-31T01:47:35;20.70;99.90
1988;DHT22;12775;46.994;15.498;2023-07-31T01:50:02;20.80;99.90
1988;DHT22;12775;46.994;15.498;2023-07-31T01:52:28;20.80;99.90
1988;DHT22;12775;46.994;15.498;2023-07-31T01:54:55;20.80;99.90
1988;DHT22;12775;46.994;15.498;2023-07-31T01:57:21;20.60;99.90
1988;DHT22;12775;46.994;15.498;2023-07-31T01:59:48;20.60;99.90
1988;DHT22;12775;46.994;15.498;2023-07-31T02:02:15;20.60;99.90
1988;DHT22;12775;46.994;15.498;2023-07-31T02:04:41;20.70;99.90
1988;DHT22;12775;46.994;15.498;2023-07-31T02:07:09;20.70;99.90
1988;DHT22;12775;46.994;15.498;2023-07-31T02:09:36;20.70;99.90
1988;DHT22;12775;46.994;15.498;2023-07-31T02:12:03;20.70;99.90
1988;DHT22;12775;46.994;15.498;2023-07-31T02:14:30;20.60;99.90
1988;DHT22;12775;46.994;15.498;2023-07-31T02:16:57;20.60;99.90
1988;DHT22;12775;46.994;15.498;2023-07-31T02:19:24;20.60;99.90
1988;DHT22;12775;46.994;15.498;2023-07-31T02:21:50;20.60;99.90
1988;DHT22;12775;46.994;15.498;2023-07-31T02:24:17;20.60;99.90
1988;DHT22;12775;46.994;15.498;2023-07-31T02:26:43;20.60;99.90
1988;DHT22;12775;46.994;15.498;2023-07-31T02:29:10;20.60;99.90
1988;DHT22;12775;46.994;15.498;2023-07-31T02:31:37;20.60;99.90
1988;DHT22;12775;46.994;15.498;2023-07-31T02:34:03;20.60;99.90
1988;DHT22;12775;46.994;15.498;2023-07-31T02:36:30;20.60;99.90
1988;DHT22;12775;46.994;15.498;2023-07-31T02:38:56;20.60;99.90
1988;DHT22;12775;46.994;15.498;2023-07-31T02:41:24;20.50;99.90
1988;DHT22;12775;46.994;15.498;2023-07-31T02:43:50;20.50;99.90
1988;DHT22;12775;46.994;15.498;2023-07-31T02:46:17;20.50;99.90
1988;DHT22;12775;46.994;15.498;2023-07-31T02:48:43;20.50;99.90
1988;DHT22;12775;46.994;15.498;2023-07-31T02:51:10;20.50;99.90
1988;DHT22;12775;46.994;15.498;2023-07-31T02:53:37;20.50;99.90
1988;DHT22;12775;46.994;15.498;2023-07-31T02:56:03;20.40;99.90
1988;DHT22;12775;46.994;15.498;2023-07-31T02:58:30;20.40;99.90
1988;DHT22;12775;46.994;15.498;2023-07-31T03:00:58;20.40;99.90
1988;DHT22;12775;46.994;15.498;2023-07-31T03:03:23;20.40;99.90
1988;DHT22;12775;46.994;15.498;2023-07-31T03:05:50;20.30;99.90
1988;DHT22;12775;46.994;15.498;2023-07-31T03:08:16;20.30;99.90
1988;DHT22;12775;46.994;15.498;2023-07-31T03:10:43;20.30;99.90
1988;DHT22;12775;46.994;15.498;2023-07-31T03:13:10;20.30;99.90
1988;DHT22;12775;46.994;15.498;2023-07-31T03:15:36;20.20;99.90
1988;DHT22;12775;46.994;15.498;2023-07-31T03:18:03;20.30;99.90
1988;DHT22;12775;46.994;15.498;2023-07-31T03:20:29;20.20;99.90
1988;DHT22;12775;46.994;15.498;2023-07-31T03:22:56;20.20;99.90
1988;DHT22;12775;46.994;15.498;2023-07-31T03:25:23;20.20;99.90
1988;DHT22;12775;46.994;15.498;2023-07-31T03:27:49;20.20;99.90
1988;DHT22;12775;46.994;15.498;2023-07-31T03:30:16;20.10;99.90
1988;DHT22;12775;46.994;15.498;2023-07-31T03:32:43;20.10;99.90
1988;DHT22;12775;46.994;15.498;2023-07-31T03:35:09;20.10;99.90
1988;DHT22;12775;46.994;15.498;2023-07-31T03:37:36;20.10;99.90
1988;DHT22;12775;46.994;15.498;2023-07-31T03:40:03;20.10;99.90
1988;DHT22;12775;46.994;15.498;2023-07-31T03:42:29;20.00;99.90
1988;DHT22;12775;46.994;15.498;2023-07-31T03:44:56;20.00;99.90
1988;DHT22;12775;46.994;15.498;2023-07-31T03:47:22;20.00;99.90
1988;DHT22;12775;46.994;15.498;2023-07-31T03:49:50;20.10;99.90
1988;DHT22;12775;46.994;15.498;2023-07-31T03:52:17;20.10;99.90
1988;DHT22;12775;46.994;15.498;2023-07-31T03:54:44;20.10;99.90
1988;DHT22;12775;46.994;15.498;2023-07-31T03:57:11;20.10;99.90
1988;DHT22;12775;46.994;15.498;2023-07-31T03:59:37;20.10;99.90
1988;DHT22;12775;46.994;15.498;2023-07-31T04:02:05;20.10;99.90
1988;DHT22;12775;46.994;15.498;2023-07-31T04:04:31;20.10;99.90
1988;DHT22;12775;46.994;15.498;2023-07-31T04:06:58;20.10;99.90
1988;DHT22;12775;46.994;15.498;2023-07-31T04:09:25;20.00;99.90
1988;DHT22;12775;46.994;15.498;2023-07-31T04:11:51;20.10;99.90
1988;DHT22;12775;46.994;15.498;2023-07-31T04:14:18;20.00;99.90
1988;DHT22;12775;46.994;15.498;2023-07-31T04:16:45;20.00;99.90
1988;DHT22;12775;46.994;15.498;2023-07-31T04:19:12;20.00;99.90
1988;DHT22;12775;46.994;15.498;2023-07-31T04:21:38;20.00;99.90
1988;DHT22;12775;46.994;15.498;2023-07-31T04:24:06;19.90;99.90
1988;DHT22;12775;46.994;15.498;2023-07-31T04:26:32;19.90;99.90
1988;DHT22;12775;46.994;15.498;2023-07-31T04:28:59;19.80;99.90
1988;DHT22;12775;46.994;15.498;2023-07-31T04:31:26;19.90;99.90
1988;DHT22;12775;46.994;15.498;2023-07-31T04:33:52;19.80;99.90
1988;DHT22;12775;46.994;15.498;2023-07-31T04:36:19;19.70;99.90
1988;DHT22;12775;46.994;15.498;2023-07-31T04:38:45;19.80;99.90
1988;DHT22;12775;46.994;15.498;2023-07-31T04:41:12;19.80;99.90
1988;DHT22;12775;46.994;15.498;2023-07-31T04:43:39;19.80;99.90
1988;DHT22;12775;46.994;15.498;2023-07-31T04:46:05;19.70;99.90
1988;DHT22;12775;46.994;15.498;2023-07-31T04:48:32;19.70;99.90
1988;DHT22;12775;46.994;15.498;2023-07-31T04:50:58;19.80;99.90
1988;DHT22;12775;46.994;15.498;2023-07-31T04:53:25;19.80;99.90
1988;DHT22;12775;46.994;15.498;2023-07-31T04:55:52;19.80;99.90
1988;DHT22;12775;46.994;15.498;2023-07-31T04:58:18;19.80;99.90
1988;DHT22;12775;46.994;15.498;2023-07-31T05:00:45;19.90;99.90
1988;DHT22;12775;46.994;15.498;2023-07-31T05:03:11;19.90;99.90
1988;DHT22;12775;46.994;15.498;2023-07-31T05:05:38;19.90;99.90
1988;DHT22;12775;46.994;15.498;2023-07-31T05:08:04;19.90;99.90
1988;DHT22;12775;46.994;15.498;2023-07-31T05:10:31;19.90;99.90
1988;DHT22;12775;46.994;15.498;2023-07-31T05:12:58;20.00;99.90
1988;DHT22;12775;46.994;15.498;2023-07-31T05:15:24;19.90;99.90
1988;DHT22;12775;46.994;15.498;2023-07-31T05:17:51;19.80;99.90
1988;DHT22;12775;46.994;15.498;2023-07-31T05:20:17;19.80;99.90
1988;DHT22;12775;46.994;15.498;2023-07-31T05:22:44;19.90;99.90
1988;DHT22;12775;46.994;15.498;2023-07-31T05:25:11;19.80;99.90
1988;DHT22;12775;46.994;15.498;2023-07-31T05:27:37;20.00;99.90
1988;DHT22;12775;46.994;15.498;2023-07-31T05:30:05;20.00;99.90
1988;DHT22;12775;46.994;15.498;2023-07-31T05:32:32;20.10;99.90
1988;DHT22;12775;46.994;15.498;2023-07-31T05:34:58;20.10;99.90
1988;DHT22;12775;46.994;15.498;2023-07-31T05:37:25;20.20;99.90
1988;DHT22;12775;46.994;15.498;2023-07-31T05:39:51;20.30;99.90
1988;DHT22;12775;46.994;15.498;2023-07-31T05:42:18;20.30;99.90
1988;DHT22;12775;46.994;15.498;2023-07-31T05:44:45;20.40;99.90
1988;DHT22;12775;46.994;15.498;2023-07-31T05:47:12;20.40;99.90
1988;DHT22;12775;46.994;15.498;2023-07-31T05:49:39;20.40;99.90
1988;DHT22;12775;46.994;15.498;2023-07-31T05:52:06;20.50;99.90
1988;DHT22;12775;46.994;15.498;2023-07-31T05:54:32;20.60;99.90
1988;DHT22;12775;46.994;15.498;2023-07-31T05:56:59;20.70;99.90
1988;DHT22;12775;46.994;15.498;2023-07-31T05:59:25;20.70;99.90
1988;DHT22;12775;46.994;15.498;2023-07-31T06:01:53;21.10;99.90
1988;DHT22;12775;46.994;15.498;2023-07-31T06:04:19;21.10;99.90
1988;DHT22;12775;46.994;15.498;2023-07-31T06:06:46;21.30;99.90
1988;DHT22;12775;46.994;15.498;2023-07-31T06:09:13;21.50;99.90
1988;DHT22;12775;46.994;15.498;2023-07-31T06:11:39;21.50;99.90
1988;DHT22;12775;46.994;15.498;2023-07-31T06:14:06;21.60;99.90
1988;DHT22;12775;46.994;15.498;2023-07-31T06:16:32;21.70;99.90
1988;DHT22;12775;46.994;15.498;2023-07-31T06:18:59;21.90;99.90
1988;DHT22;12775;46.994;15.498;2023-07-31T06:21:26;22.10;99.90
1988;DHT22;12775;46.994;15.498;2023-07-31T06:23:52;22.50;99.90
1988;DHT22;12775;46.994;15.498;2023-07-31T06:26:19;22.90;99.90
1988;DHT22;12775;46.994;15.498;2023-07-31T06:28:45;23.30;99.90
1988;DHT22;12775;46.994;15.498;2023-07-31T06:31:12;23.70;99.90
1988;DHT22;12775;46.994;15.498;2023-07-31T06:33:39;24.00;99.90
1988;DHT22;12775;46.994;15.498;2023-07-31T06:36:05;24.30;99.90
1988;DHT22;12775;46.994;15.498;2023-07-31T06:38:32;24.70;99.90
1988;DHT22;12775;46.994;15.498;2023-07-31T06:40:58;24.80;99.90
1988;DHT22;12775;46.994;15.498;2023-07-31T06:43:25;25.00;99.90
1988;DHT22;12775;46.994;15.498;2023-07-31T06:45:52;25.30;99.90
1988;DHT22;12775;46.994;15.498;2023-07-31T06:48:18;25.60;99.90
1988;DHT22;12775;46.994;15.498;2023-07-31T06:50:45;25.80;99.90
1988;DHT22;12775;46.994;15.498;2023-07-31T06:53:11;26.10;99.90
1988;DHT22;12775;46.994;15.498;2023-07-31T06:55:38;26.50;99.70
1988;DHT22;12775;46.994;15.498;2023-07-31T06:58:05;26.60;99.90
1988;DHT22;12775;46.994;15.498;2023-07-31T07:00:31;26.60;99.90
1988;DHT22;12775;46.994;15.498;2023-07-31T07:02:58;26.90;99.90
1988;DHT22;12775;46.994;15.498;2023-07-31T07:05:24;27.10;99.90
1988;DHT22;12775;46.994;15.498;2023-07-31T07:07:51;27.30;97.60
1988;DHT22;12775;46.994;15.498;2023-07-31T07:10:18;27.30;97.10
1988;DHT22;12775;46.994;15.498;2023-07-31T07:12:44;27.20;97.60
1988;DHT22;12775;46.994;15.498;2023-07-31T07:15:11;27.30;99.40
1988;DHT22;12775;46.994;15.498;2023-07-31T07:17:41;27.60;97.20
1988;DHT22;12775;46.994;15.498;2023-07-31T07:20:09;27.60;97.20
1988;DHT22;12775;46.994;15.498;2023-07-31T07:22:36;27.80;95.20
1988;DHT22;12775;46.994;15.498;2023-07-31T07:25:04;27.90;95.00
1988;DHT22;12775;46.994;15.498;2023-07-31T07:27:31;28.20;91.70
1988;DHT22;12775;46.994;15.498;2023-07-31T07:29:57;28.20;91.70
1988;DHT22;12775;46.994;15.498;2023-07-31T07:32:24;28.10;91.40
1988;DHT22;12775;46.994;15.498;2023-07-31T07:34:51;28.30;93.20
1988;DHT22;12775;46.994;15.498;2023-07-31T07:37:17;28.40;96.20
1988;DHT22;12775;46.994;15.498;2023-07-31T07:39:44;28.40;94.60
1988;DHT22;12775;46.994;15.498;2023-07-31T07:42:10;28.50;90.20
1988;DHT22;12775;46.994;15.498;2023-07-31T07:44:37;28.50;91.20
1988;DHT22;12775;46.994;15.498;2023-07-31T07:47:05;28.50;93.10
1988;DHT22;12775;46.994;15.498;2023-07-31T07:49:33;28.40;92.10
1988;DHT22;12775;46.994;15.498;2023-07-31T07:51:59;28.70;93.00
1988;DHT22;12775;46.994;15.498;2023-07-31T07:54:25;28.60;89.10
1988;DHT22;12775;46.994;15.498;2023-07-31T07:56:52;28.50;88.30
1988;DHT22;12775;46.994;15.498;2023-07-31T07:59:20;28.60;88.40
1988;DHT22;12775;46.994;15.498;2023-07-31T08:01:46;28.60;91.40
1988;DHT22;12775;46.994;15.498;2023-07-31T08:04:13;28.30;90.50
1988;DHT22;12775;46.994;15.498;2023-07-31T08:06:39;28.10;90.00
1988;DHT22;12775;46.994;15.498;2023-07-31T08:09:07;28.20;93.60
1988;DHT22;12775;46.994;15.498;2023-07-31T08:11:33;28.40;92.10
1988;DHT22;12775;46.994;15.498;2023-07-31T08:14:00;28.30;90.90
1988;DHT22;12775;46.994;15.498;2023-07-31T08:16:27;28.30;92.80
1988;DHT22;12775;46.994;15.498;2023-07-31T08:18:54;28.30;90.70
1988;DHT22;12775;46.994;15.498;2023-07-31T08:21:21;28.30;90.20
1988;DHT22;12775;46.994;15.498;2023-07-31T08:23:49;28.20;88.20
1988;DHT22;12775;46.994;15.498;2023-07-31T08:26:16;27.90;91.00
1988;DHT22;12775;46.994;15.498;2023-07-31T08:28:43;27.90;90.10
1988;DHT22;12775;46.994;15.498;2023-07-31T08:31:11;28.20;91.70
1988;DHT22;12775;46.994;15.498;2023-07-31T08:33:38;28.50;91.40
1988;DHT22;12775;46.994;15.498;2023-07-31T08:36:05;28.50;91.40
1988;DHT22;12775;46.994;15.498;2023-07-31T08:38:31;28.50;89.80
1988;DHT22;12775;46.994;15.498;2023-07-31T08:40:58;28.50;90.20
1988;DHT22;12775;46.994;15.498;2023-07-31T08:43:26;28.60;90.30
1988;DHT22;12775;46.994;15.498;2023-07-31T08:45:52;28.50;90.40
1988;DHT22;12775;46.994;15.498;2023-07-31T08:48:21;28.50;90.70
1988;DHT22;12775;46.994;15.498;2023-07-31T08:50:46;28.40;87.40
1988;DHT22;12775;46.994;15.498;2023-07-31T08:53:13;28.40;87.50
1988;DHT22;12775;46.994;15.498;2023-07-31T08:55:39;28.30;87.70
1988;DHT22;12775;46.994;15.498;2023-07-31T08:58:06;28.30;87.80
1988;DHT22;12775;46.994;15.498;2023-07-31T09:00:32;28.20;86.90
1988;DHT22;12775;46.994;15.498;2023-07-31T09:03:03;28.20;85.50
1988;DHT22;12775;46.994;15.498;2023-07-31T09:05:30;28.50;85.60
1988;DHT22;12775;46.994;15.498;2023-07-31T09:07:56;28.40;85.50
1988;DHT22;12775;46.994;15.498;2023-07-31T09:10:22;28.50;83.90
1988;DHT22;12775;46.994;15.498;2023-07-31T09:12:49;28.60;87.70
1988;DHT22;12775;46.994;15.498;2023-07-31T09:15:16;28.30;84.00
1988;DHT22;12775;46.994;15.498;2023-07-31T09:17:43;28.20;84.00
1988;DHT22;12775;46.994;15.498;2023-07-31T09:20:16;28.20;85.10
1988;DHT22;12775;46.994;15.498;2023-07-31T09:22:42;28.30;86.10
1988;DHT22;12775;46.994;15.498;2023-07-31T09:25:16;28.30;87.10
1988;DHT22;12775;46.994;15.498;2023-07-31T09:27:50;28.40;85.00
1988;DHT22;12775;46.994;15.498;2023-07-31T09:30:16;28.40;88.10
1988;DHT22;12775;46.994;15.498;2023-07-31T09:32:43;28.50;87.20
1988;DHT22;12775;46.994;15.498;2023-07-31T09:35:19;28.60;89.90
1988;DHT22;12775;46.994;15.498;2023-07-31T09:37:48;28.60;89.90
1988;DHT22;12775;46.994;15.498;2023-07-31T09:40:12;28.70;90.70
1988;DHT22;12775;46.994;15.498;2023-07-31T09:42:38;28.90;84.90
1988;DHT22;12775;46.994;15.498;2023-07-31T09:45:07;29.00;88.20
1988;DHT22;12775;46.994;15.498;2023-07-31T09:47:33;29.20;83.90
1988;DHT22;12775;46.994;15.498;2023-07-31T09:50:00;29.00;86.00
1988;DHT22;12775;46.994;15.498;2023-07-31T09:52:27;28.90;83.70
1988;DHT22;12775;46.994;15.498;2023-07-31T09:54:54;29.30;86.30
1988;DHT22;12775;46.994;15.498;2023-07-31T09:57:21;29.30;84.80
1988;DHT22;12775;46.994;15.498;2023-07-31T09:59:47;29.30;83.60
1988;DHT22;12775;46.994;15.498;2023-07-31T10:02:15;29.20;82.30
1988;DHT22;12775;46.994;15.498;2023-07-31T10:04:40;29.30;86.80
1988;DHT22;12775;46.994;15.498;2023-07-31T10:07:07;29.20;82.80
1988;DHT22;12775;46.994;15.498;2023-07-31T10:09:33;29.30;82.90
1988;DHT22;12775;46.994;15.498;2023-07-31T10:12:00;29.40;86.40
1988;DHT22;12775;46.994;15.498;2023-07-31T10:14:26;29.50;84.80
1988;DHT22;12775;46.994;15.498;2023-07-31T10:16:53;29.30;84.00
1988;DHT22;12775;46.994;15.498;2023-07-31T10:19:20;29.40;84.70
1988;DHT22;12775;46.994;15.498;2023-07-31T10:21:46;29.20;83.50
1988;DHT22;12775;46.994;15.498;2023-07-31T10:24:13;29.40;85.80
1988;DHT22;12775;46.994;15.498;2023-07-31T10:26:40;29.40;84.10
1988;DHT22;12775;46.994;15.498;2023-07-31T10:29:06;29.00;83.80
1988;DHT22;12775;46.994;15.498;2023-07-31T10:31:34;28.70;85.20
1988;DHT22;12775;46.994;15.498;2023-07-31T10:34:01;28.70;85.20
1988;DHT22;12775;46.994;15.498;2023-07-31T10:36:28;28.50;85.80
1988;DHT22;12775;46.994;15.498;2023-07-31T10:38:55;28.50;87.10
1988;DHT22;12775;46.994;15.498;2023-07-31T10:41:28;28.40;85.00
1988;DHT22;12775;46.994;15.498;2023-07-31T10:43:54;28.40;86.70
1988;DHT22;12775;46.994;15.498;2023-07-31T10:46:17;28.40;86.40
1988;DHT22;12775;46.994;15.498;2023-07-31T10:48:44;28.90;86.00
1988;DHT22;12775;46.994;15.498;2023-07-31T10:51:11;28.90;86.00
1988;DHT22;12775;46.994;15.498;2023-07-31T10:53:38;29.10;85.80
1988;DHT22;12775;46.994;15.498;2023-07-31T10:56:07;29.20;83.10
1988;DHT22;12775;46.994;15.498;2023-07-31T10:58:33;29.30;85.00
1988;DHT22;12775;46.994;15.498;2023-07-31T11:01:00;29.30;82.10
1988;DHT22;12775;46.994;15.498;2023-07-31T11:03:26;29.30;82.30
1988;DHT22;12775;46.994;15.498;2023-07-31T11:06:00;29.00;84.10
1988;DHT22;12775;46.994;15.498;2023-07-31T11:08:27;29.00;84.50
1988;DHT22;12775;46.994;15.498;2023-07-31T11:11:05;29.00;83.10
1988;DHT22;12775;46.994;15.498;2023-07-31T11:13:39;28.90;83.70
1988;DHT22;12775;46.994;15.498;2023-07-31T11:16:00;29.20;84.60
1988;DHT22;12775;46.994;15.498;2023-07-31T11:18:27;29.40;85.40
1988;DHT22;12775;46.994;15.498;2023-07-31T11:20:54;29.60;91.40
1988;DHT22;12775;46.994;15.498;2023-07-31T11:23:21;29.60;83.10
1988;DHT22;12775;46.994;15.498;2023-07-31T11:25:47;29.90;81.10
1988;DHT22;12775;46.994;15.498;2023-07-31T11:28:14;29.80;79.40
1988;DHT22;12775;46.994;15.498;2023-07-31T11:30:40;29.90;80.00
1988;DHT22;12775;46.994;15.498;2023-07-31T11:33:07;29.90;90.20
1988;DHT22;12775;46.994;15.498;2023-07-31T11:35:35;29.90;84.30
1988;DHT22;12775;46.994;15.498;2023-07-31T11:38:01;29.90;84.30
1988;DHT22;12775;46.994;15.498;2023-07-31T11:40:27;29.90;85.30
1988;DHT22;12775;46.994;15.498;2023-07-31T11:42:57;29.60;82.50
1988;DHT22;12775;46.994;15.498;2023-07-31T11:45:25;29.60;83.90
1988;DHT22;12775;46.994;15.498;2023-07-31T11:47:51;29.70;80.40
1988;DHT22;12775;46.994;15.498;2023-07-31T11:50:17;29.80;80.00
1988;DHT22;12775;46.994;15.498;2023-07-31T11:52:44;29.90;84.70
1988;DHT22;12775;46.994;15.498;2023-07-31T11:55:11;29.70;82.20
1988;DHT22;12775;46.994;15.498;2023-07-31T11:57:38;29.80;84.30
1988;DHT22;12775;46.994;15.498;2023-07-31T12:00:05;30.00;83.00
1988;DHT22;12775;46.994;15.498;2023-07-31T12:02:32;30.00;82.20
1988;DHT22;12775;46.994;15.498;2023-07-31T12:04:59;30.10;83.10
1988;DHT22;12775;46.994;15.498;2023-07-31T12:07:25;30.20;84.50
1988;DHT22;12775;46.994;15.498;2023-07-31T12:09:54;29.80;79.90
1988;DHT22;12775;46.994;15.498;2023-07-31T12:12:22;29.80;81.90
1988;DHT22;12775;46.994;15.498;2023-07-31T12:14:48;29.60;81.70
1988;DHT22;12775;46.994;15.498;2023-07-31T12:17:14;29.40;81.40
1988;DHT22;12775;46.994;15.498;2023-07-31T12:19:42;29.40;84.70
1988;DHT22;12775;46.994;15.498;2023-07-31T12:22:13;29.40;84.70
1988;DHT22;12775;46.994;15.498;2023-07-31T12:24:40;29.30;84.60
1988;DHT22;12775;46.994;15.498;2023-07-31T12:27:10;29.20;83.40
1988;DHT22;12775;46.994;15.498;2023-07-31T12:29:36;29.10;83.10
1988;DHT22;12775;46.994;15.498;2023-07-31T12:32:02;29.00;83.70
1988;DHT22;12775;46.994;15.498;2023-07-31T12:34:29;29.10;84.00
1988;DHT22;12775;46.994;15.498;2023-07-31T12:36:56;28.90;84.40
1988;DHT22;12775;46.994;15.498;2023-07-31T12:39:23;29.10;86.80
1988;DHT22;12775;46.994;15.498;2023-07-31T12:41:49;29.10;82.10
1988;DHT22;12775;46.994;15.498;2023-07-31T12:44:16;29.10;81.00
1988;DHT22;12775;46.994;15.498;2023-07-31T12:46:43;29.10;82.50
1988;DHT22;12775;46.994;15.498;2023-07-31T12:49:10;29.20;84.70
1988;DHT22;12775;46.994;15.498;2023-07-31T12:51:36;29.30;90.20
1988;DHT22;12775;46.994;15.498;2023-07-31T12:54:04;29.40;84.20
1988;DHT22;12775;46.994;15.498;2023-07-31T12:56:30;29.30;82.40
1988;DHT22;12775;46.994;15.498;2023-07-31T12:58:57;29.00;82.80
1988;DHT22;12775;46.994;15.498;2023-07-31T13:01:24;29.00;83.60
1988;DHT22;12775;46.994;15.498;2023-07-31T13:03:50;29.00;84.10
1988;DHT22;12775;46.994;15.498;2023-07-31T13:06:17;28.90;86.30
1988;DHT22;12775;46.994;15.498;2023-07-31T13:08:43;28.80;85.60
1988;DHT22;12775;46.994;15.498;2023-07-31T13:11:10;28.80;83.10
1988;DHT22;12775;46.994;15.498;2023-07-31T13:13:37;28.80;83.50
1988;DHT22;12775;46.994;15.498;2023-07-31T13:16:03;28.80;87.60
1988;DHT22;12775;46.994;15.498;2023-07-31T13:18:30;28.90;84.90
1988;DHT22;12775;46.994;15.498;2023-07-31T13:20:56;29.20;85.40
1988;DHT22;12775;46.994;15.498;2023-07-31T13:23:23;29.40;87.90
1988;DHT22;12775;46.994;15.498;2023-07-31T13:25:50;29.60;88.40
1988;DHT22;12775;46.994;15.498;2023-07-31T13:28:16;29.60;84.20
1988;DHT22;12775;46.994;15.498;2023-07-31T13:30:44;29.60;80.70
1988;DHT22;12775;46.994;15.498;2023-07-31T13:33:11;29.60;80.70
1988;DHT22;12775;46.994;15.498;2023-07-31T13:35:38;29.60;82.60
1988;DHT22;12775;46.994;15.498;2023-07-31T13:38:05;29.50;82.60
1988;DHT22;12775;46.994;15.498;2023-07-31T13:40:32;29.70;82.50
1988;DHT22;12775;46.994;15.498;2023-07-31T13:42:58;29.80;80.90
1988;DHT22;12775;46.994;15.498;2023-07-31T13:45:25;29.90;80.50
1988;DHT22;12775;46.994;15.498;2023-07-31T13:47:52;30.00;80.40
1988;DHT22;12775;46.994;15.498;2023-07-31T13:50:18;30.00;82.30
1988;DHT22;12775;46.994;15.498;2023-07-31T13:52:45;30.20;81.30
1988;DHT22;12775;46.994;15.498;2023-07-31T13:55:11;30.10;80.20
1988;DHT22;12775;46.994;15.498;2023-07-31T13:57:38;30.20;78.80
1988;DHT22;12775;46.994;15.498;2023-07-31T14:00:05;30.10;78.60
1988;DHT22;12775;46.994;15.498;2023-07-31T14:02:32;29.80;78.30
1988;DHT22;12775;46.994;15.498;2023-07-31T14:04:59;29.80;79.60
1988;DHT22;12775;46.994;15.498;2023-07-31T14:07:26;29.90;82.20
1988;DHT22;12775;46.994;15.498;2023-07-31T14:09:53;29.90;82.20
1988;DHT22;12775;46.994;15.498;2023-07-31T14:12:19;30.00;80.50
1988;DHT22;12775;46.994;15.498;2023-07-31T14:14:46;30.00;82.20
1988;DHT22;12775;46.994;15.498;2023-07-31T14:17:12;30.10;79.90
1988;DHT22;12775;46.994;15.498;2023-07-31T14:19:39;30.00;81.30
1988;DHT22;12775;46.994;15.498;2023-07-31T14:22:06;29.70;77.20
1988;DHT22;12775;46.994;15.498;2023-07-31T14:24:32;29.40;80.90
1988;DHT22;12775;46.994;15.498;2023-07-31T14:26:59;29.40;80.50
1988;DHT22;12775;46.994;15.498;2023-07-31T14:29:26;29.50;80.80
1988;DHT22;12775;46.994;15.498;2023-07-31T14:31:53;29.50;81.10
1988;DHT22;12775;46.994;15.498;2023-07-31T14:34:20;29.40;79.00
1988;DHT22;12775;46.994;15.498;2023-07-31T14:36:47;29.40;79.00
1988;DHT22;12775;46.994;15.498;2023-07-31T14:39:14;29.50;80.50
1988;DHT22;12775;46.994;15.498;2023-07-31T14:41:41;29.60;81.00
1988;DHT22;12775;46.994;15.498;2023-07-31T14:44:08;29.70;80.60
1988;DHT22;12775;46.994;15.498;2023-07-31T14:46:35;29.70;77.70
1988;DHT22;12775;46.994;15.498;2023-07-31T14:49:02;29.70;77.70
1988;DHT22;12775;46.994;15.498;2023-07-31T14:51:28;29.70;78.20
1988;DHT22;12775;46.994;15.498;2023-07-31T14:53:55;29.60;76.70
1988;DHT22;12775;46.994;15.498;2023-07-31T14:56:21;29.50;80.30
1988;DHT22;12775;46.994;15.498;2023-07-31T14:58:48;29.60;80.10
1988;DHT22;12775;46.994;15.498;2023-07-31T15:01:15;29.70;79.40
1988;DHT22;12775;46.994;15.498;2023-07-31T15:03:42;29.60;79.30
1988;DHT22;12775;46.994;15.498;2023-07-31T15:06:09;29.60;79.80
1988;DHT22;12775;46.994;15.498;2023-07-31T15:08:35;29.60;79.30
1988;DHT22;12775;46.994;15.498;2023-07-31T15:11:02;29.60;81.80
1988;DHT22;12775;46.994;15.498;2023-07-31T15:13:28;29.50;81.40
1988;DHT22;12775;46.994;15.498;2023-07-31T15:15:55;29.50;78.70
1988;DHT22;12775;46.994;15.498;2023-07-31T15:18:22;29.40;78.80
1988;DHT22;12775;46.994;15.498;2023-07-31T15:20:48;29.30;79.30
1988;DHT22;12775;46.994;15.498;2023-07-31T15:23:15;29.30;79.90
1988;DHT22;12775;46.994;15.498;2023-07-31T15:25:41;29.30;80.40
1988;DHT22;12775;46.994;15.498;2023-07-31T15:28:08;29.40;81.60
1988;DHT22;12775;46.994;15.498;2023-07-31T15:30:36;29.40;81.50